createdAt,value
2023-05-25T00:01:35.318Z,101743.75
2023-05-25T00:04:04.957Z,101745.03
2023-05-25T00:06:32.743Z,101744.69
2023-05-25T00:08:59.176Z,101747.94
2023-05-25T00:11:26.633Z,101741.28
2023-05-25T00:13:53.327Z,101747.50
2023-05-25T00:16:19.958Z,101748.06
2023-05-25T00:18:48.471Z,101747.88
2023-05-25T00:21:15.935Z,101747.78
2023-05-25T00:23:42.895Z,101741.00
2023-05-25T00:26:09.536Z,101731.59
2023-05-25T00:28:36.079Z,101742.69
2023-05-25T00:31:02.565Z,101747.13
2023-05-25T00:33:29.194Z,101750.19
2023-05-25T00:35:57.078Z,101736.13
2023-05-25T00:38:23.552Z,101743.94
2023-05-25T00:40:55.054Z,101747.06
2023-05-25T00:43:21.593Z,101746.03
2023-05-25T00:45:48.233Z,101748.66
2023-05-25T00:48:15.467Z,101757.22
2023-05-25T00:50:43.329Z,101747.28
2023-05-25T00:53:11.790Z,101747.59
2023-05-25T00:55:49.126Z,101745.06
2023-05-25T00:58:18.099Z,101745.31
2023-05-25T01:00:45.544Z,101749.13
2023-05-25T01:03:17.761Z,101745.56
2023-05-25T01:05:46.226Z,101742.13
2023-05-25T01:08:14.450Z,101736.31
2023-05-25T01:10:41.796Z,101733.94
2023-05-25T01:13:09.817Z,101737.03
2023-05-25T01:15:38.270Z,101735.53
2023-05-25T01:18:05.674Z,101736.25
2023-05-25T01:20:32.308Z,101739.03
2023-05-25T01:23:12.087Z,101735.59
2023-05-25T01:25:43.525Z,101737.69
2023-05-25T01:28:15.364Z,101742.22
2023-05-25T01:30:44.212Z,101744.81
2023-05-25T01:33:10.822Z,101748.25
2023-05-25T01:35:39.196Z,101749.78
2023-05-25T01:38:05.856Z,101748.69
2023-05-25T01:40:32.412Z,101751.19
2023-05-25T01:42:58.854Z,101749.09
2023-05-25T01:45:25.574Z,101759.28
2023-05-25T01:48:23.201Z,101753.16
2023-05-25T01:51:16.167Z,101764.50
2023-05-25T01:53:45.141Z,101768.78
2023-05-25T01:56:13.387Z,101761.91
2023-05-25T01:58:42.992Z,101760.97
2023-05-25T02:01:10.227Z,101764.31
2023-05-25T02:03:38.342Z,101758.25
2023-05-25T02:06:04.850Z,101760.28
2023-05-25T02:08:31.406Z,101769.53
2023-05-25T02:10:57.848Z,101762.78
2023-05-25T02:13:24.513Z,101769.19
2023-05-25T02:15:51.285Z,101770.75
2023-05-25T02:18:17.895Z,101778.63
2023-05-25T02:20:45.153Z,101773.59
2023-05-25T02:23:11.666Z,101768.38
2023-05-25T02:25:38.134Z,101766.66
2023-05-25T02:28:04.922Z,101769.19
2023-05-25T02:30:31.416Z,101768.97
2023-05-25T02:32:58.011Z,101772.66
2023-05-25T02:35:24.532Z,101766.59
2023-05-25T02:37:51.327Z,101768.97
2023-05-25T02:40:17.894Z,101775.09
2023-05-25T02:42:44.352Z,101773.56
2023-05-25T02:45:11.333Z,101773.69
2023-05-25T02:47:37.919Z,101770.41
2023-05-25T02:50:05.105Z,101770.41
2023-05-25T02:52:31.835Z,101781.50
2023-05-25T02:54:58.420Z,101786.00
2023-05-25T02:57:24.926Z,101784.75
2023-05-25T02:59:52.682Z,101784.16
2023-05-25T03:02:20.912Z,101779.75
2023-05-25T03:04:49.774Z,101779.13
2023-05-25T03:07:16.373Z,101778.53
2023-05-25T03:09:42.885Z,101776.75
2023-05-25T03:12:09.379Z,101780.00
2023-05-25T03:14:35.885Z,101781.56
2023-05-25T03:17:02.386Z,101777.63
2023-05-25T03:19:28.875Z,101783.56
2023-05-25T03:21:55.395Z,101783.72
2023-05-25T03:24:21.860Z,101787.38
2023-05-25T03:26:48.335Z,101777.06
2023-05-25T03:29:14.791Z,101793.13
2023-05-25T03:31:41.324Z,101792.06
2023-05-25T03:34:07.832Z,101792.09
2023-05-25T03:36:34.363Z,101794.34
2023-05-25T03:39:03.557Z,101798.53
2023-05-25T03:41:30.014Z,101801.72
2023-05-25T03:43:56.534Z,101816.84
2023-05-25T03:46:23.234Z,101811.03
2023-05-25T03:48:49.754Z,101806.63
2023-05-25T03:51:16.494Z,101813.63
2023-05-25T03:53:42.998Z,101817.13
2023-05-25T03:56:09.480Z,101807.09
2023-05-25T03:58:35.955Z,101816.22
2023-05-25T04:01:04.928Z,101819.81
2023-05-25T04:03:32.884Z,101824.34
2023-05-25T04:06:00.510Z,101828.16
2023-05-25T04:08:28.657Z,101830.44
2023-05-25T04:10:56.066Z,101828.19
2023-05-25T04:13:22.725Z,101831.97
2023-05-25T04:15:50.535Z,101834.72
2023-05-25T04:18:17.113Z,101838.38
2023-05-25T04:20:43.662Z,101839.13
2023-05-25T04:23:10.138Z,101834.38
2023-05-25T04:25:37.577Z,101845.56
2023-05-25T04:28:04.098Z,101847.13
2023-05-25T04:30:31.454Z,101838.09
2023-05-25T04:33:02.611Z,101843.13
2023-05-25T04:35:29.259Z,101846.47
2023-05-25T04:37:56.795Z,101850.94
2023-05-25T04:40:23.284Z,101849.13
2023-05-25T04:42:49.812Z,101848.50
2023-05-25T04:45:17.266Z,101843.75
2023-05-25T04:47:43.861Z,101846.19
2023-05-25T04:50:10.961Z,101853.75
2023-05-25T04:52:37.453Z,101854.59
2023-05-25T04:55:04.054Z,101852.25
2023-05-25T04:57:31.530Z,101857.28
2023-05-25T04:59:58.428Z,101853.88
2023-05-25T05:02:25.562Z,101856.22
2023-05-25T05:04:53.706Z,101860.59
2023-05-25T05:07:21.884Z,101866.31
2023-05-25T05:09:49.117Z,101868.75
2023-05-25T05:12:15.596Z,101864.72
2023-05-25T05:14:42.082Z,101868.09
2023-05-25T05:17:08.584Z,101882.22
2023-05-25T05:19:35.087Z,101884.78
2023-05-25T05:22:01.532Z,101888.94
2023-05-25T05:24:27.998Z,101894.41
2023-05-25T05:26:58.205Z,101898.38
2023-05-25T05:29:26.749Z,101892.56
2023-05-25T05:31:54.929Z,101894.47
2023-05-25T05:34:21.890Z,101903.25
2023-05-25T05:36:57.192Z,101904.63
2023-05-25T05:39:24.952Z,101912.75
2023-05-25T05:41:51.417Z,101909.84
2023-05-25T05:44:18.503Z,101902.53
2023-05-25T05:46:45.065Z,101909.53
2023-05-25T05:49:11.618Z,101911.41
2023-05-25T05:51:38.164Z,101917.78
2023-05-25T05:54:05.244Z,101914.63
2023-05-25T05:56:31.707Z,101914.22
2023-05-25T05:58:58.233Z,101911.19
2023-05-25T06:01:25.396Z,101921.75
2023-05-25T06:03:54.228Z,101930.03
2023-05-25T06:06:21.698Z,101924.09
2023-05-25T06:08:48.260Z,101917.97
2023-05-25T06:11:14.741Z,101922.09
2023-05-25T06:13:41.379Z,101919.69
2023-05-25T06:16:07.979Z,101918.28
2023-05-25T06:18:34.546Z,101924.38
2023-05-25T06:21:01.554Z,101924.28
2023-05-25T06:23:28.019Z,101925.06
2023-05-25T06:25:55.216Z,101923.03
2023-05-25T06:28:21.704Z,101927.53
2023-05-25T06:30:48.207Z,101931.66
2023-05-25T06:33:14.691Z,101927.09
2023-05-25T06:35:42.724Z,101934.50
2023-05-25T06:38:09.465Z,101932.97
2023-05-25T06:40:35.925Z,101944.50
2023-05-25T06:43:02.546Z,101950.66
2023-05-25T06:45:29.007Z,101944.63
2023-05-25T06:47:55.604Z,101937.78
2023-05-25T06:50:22.338Z,101952.53
2023-05-25T06:52:48.946Z,101952.41
2023-05-25T06:55:15.438Z,101955.50
2023-05-25T06:57:41.955Z,101950.56
2023-05-25T07:00:12.074Z,101957.19
2023-05-25T07:02:39.001Z,101951.34
2023-05-25T07:05:06.200Z,101950.88
2023-05-25T07:07:33.146Z,101958.25
2023-05-25T07:09:59.686Z,101950.72
2023-05-25T07:12:26.139Z,101948.66
2023-05-25T07:14:52.609Z,101952.06
2023-05-25T07:17:19.395Z,101955.69
2023-05-25T07:19:46.064Z,101954.69
2023-05-25T07:22:12.788Z,101958.31
2023-05-25T07:24:39.283Z,101950.47
2023-05-25T07:27:06.653Z,101946.94
2023-05-25T07:29:33.344Z,101956.81
2023-05-25T07:31:59.791Z,101947.19
2023-05-25T07:34:27.936Z,101958.63
2023-05-25T07:36:54.576Z,101961.53
2023-05-25T07:39:21.094Z,101967.78
2023-05-25T07:41:47.584Z,101975.06
2023-05-25T07:44:14.095Z,101969.47
2023-05-25T07:46:40.853Z,101966.44
2023-05-25T07:49:11.934Z,101968.16
2023-05-25T07:51:38.847Z,101967.88
2023-05-25T07:54:05.330Z,101969.66
2023-05-25T07:56:31.782Z,101977.22
2023-05-25T07:58:59.965Z,101978.91
2023-05-25T08:01:27.152Z,101979.19
2023-05-25T08:03:53.796Z,101984.00
2023-05-25T08:06:20.714Z,101977.28
2023-05-25T08:08:47.428Z,101980.78
2023-05-25T08:11:15.034Z,101980.25
2023-05-25T08:13:41.495Z,101980.13
2023-05-25T08:16:09.053Z,101977.41
2023-05-25T08:18:35.841Z,101986.09
2023-05-25T08:21:02.553Z,101985.59
2023-05-25T08:23:28.996Z,101991.03
2023-05-25T08:25:55.505Z,101989.34
2023-05-25T08:28:22.368Z,101998.72
2023-05-25T08:30:49.084Z,101995.56
2023-05-25T08:33:15.583Z,101998.59
2023-05-25T08:35:43.120Z,102003.78
2023-05-25T08:38:09.933Z,102010.66
2023-05-25T08:40:38.545Z,102011.31
2023-05-25T08:43:05.569Z,102003.91
2023-05-25T08:45:34.937Z,102003.91
2023-05-25T08:48:04.559Z,102008.59
2023-05-25T08:50:32.532Z,102012.75
2023-05-25T08:53:02.928Z,102010.28
2023-05-25T08:55:31.088Z,102010.66
2023-05-25T08:58:10.536Z,102010.50
2023-05-25T09:00:43.134Z,102018.09
2023-05-25T09:03:17.961Z,102016.91
2023-05-25T09:05:45.225Z,102022.75
2023-05-25T09:08:11.841Z,102020.13
2023-05-25T09:10:38.976Z,102020.13
2023-05-25T09:13:19.610Z,102023.00
2023-05-25T09:15:49.163Z,102025.06
2023-05-25T09:18:15.709Z,102033.91
2023-05-25T09:20:44.399Z,102022.75
2023-05-25T09:23:13.505Z,102024.31
2023-05-25T09:25:41.037Z,102036.66
2023-05-25T09:28:25.320Z,102033.78
2023-05-25T09:30:53.464Z,102026.88
2023-05-25T09:33:20.040Z,102032.91
2023-05-25T09:35:46.675Z,102024.53
2023-05-25T09:38:14.964Z,102029.38
2023-05-25T09:40:41.800Z,102029.78
2023-05-25T09:43:08.301Z,102027.41
2023-05-25T09:45:38.219Z,102025.19
2023-05-25T09:48:06.312Z,102031.03
2023-05-25T09:50:32.831Z,102034.44
2023-05-25T09:53:01.695Z,102032.50
2023-05-25T09:55:40.035Z,102037.81
2023-05-25T09:58:15.672Z,102033.66
2023-05-25T10:00:42.207Z,102037.97
2023-05-25T10:03:09.249Z,102033.88
2023-05-25T10:05:35.750Z,102034.09
2023-05-25T10:08:02.685Z,102035.28
2023-05-25T10:10:29.520Z,102036.53
2023-05-25T10:12:56.123Z,102031.31
2023-05-25T10:15:22.915Z,102035.53
2023-05-25T10:17:54.523Z,102045.72
2023-05-25T10:20:24.899Z,102042.63
2023-05-25T10:23:04.925Z,102039.44
2023-05-25T10:25:44.957Z,102033.28
2023-05-25T10:28:35.758Z,102034.78
2023-05-25T10:31:03.427Z,102031.94
2023-05-25T10:36:09.534Z,102035.13
2023-05-25T10:38:39.378Z,102037.28
2023-05-25T10:41:06.108Z,102038.13
2023-05-25T10:43:32.674Z,102026.47
2023-05-25T10:45:59.404Z,102037.47
2023-05-25T10:48:35.851Z,102028.50
2023-05-25T10:51:02.296Z,102024.88
2023-05-25T10:53:28.797Z,102014.63
2023-05-25T10:55:55.303Z,102013.47
2023-05-25T10:58:22.991Z,102019.50
2023-05-25T11:01:02.590Z,102023.31
2023-05-25T11:03:47.339Z,102024.97
2023-05-25T11:06:15.566Z,102010.03
2023-05-25T11:08:59.108Z,102014.16
2023-05-25T11:11:44.413Z,102013.50
2023-05-25T11:14:23.867Z,102017.28
2023-05-25T11:17:10.957Z,102025.56
2023-05-25T11:19:47.919Z,102022.34
2023-05-25T11:22:35.173Z,102021.91
2023-05-25T11:25:03.184Z,102019.31
2023-05-25T11:27:31.530Z,102021.72
2023-05-25T11:29:59.038Z,102015.75
2023-05-25T11:32:26.596Z,102015.63
2023-05-25T11:34:53.943Z,102011.63
2023-05-25T11:37:22.037Z,102007.88
2023-05-25T11:39:49.844Z,102008.13
2023-05-25T11:42:17.555Z,102004.63
2023-05-25T11:44:44.293Z,102003.28
2023-05-25T11:47:14.777Z,102001.47
2023-05-25T11:49:42.326Z,102003.75
2023-05-25T11:52:09.970Z,101994.72
2023-05-25T11:54:36.958Z,101992.41
2023-05-25T11:57:03.776Z,101988.19
2023-05-25T11:59:32.516Z,101989.63
2023-05-25T12:02:04.180Z,101997.56
2023-05-25T12:04:34.871Z,101986.94
2023-05-25T12:07:05.692Z,101978.91
2023-05-25T12:09:32.414Z,101982.66
2023-05-25T12:11:59.397Z,101982.88
2023-05-25T12:14:26.233Z,101985.47
2023-05-25T12:16:52.933Z,101980.00
2023-05-25T12:19:19.557Z,101979.13
2023-05-25T12:21:46.248Z,101981.03
2023-05-25T12:24:13.409Z,101981.16
2023-05-25T12:26:57.450Z,101973.91
2023-05-25T12:29:25.571Z,101978.22
2023-05-25T12:31:52.534Z,101974.81
2023-05-25T12:34:20.097Z,101977.03
2023-05-25T12:36:51.811Z,101973.66
2023-05-25T12:39:30.532Z,101965.72
2023-05-25T12:41:56.905Z,101977.13
2023-05-25T12:44:28.769Z,101975.59
2023-05-25T12:46:56.542Z,101971.97
2023-05-25T12:49:23.919Z,101975.09
2023-05-25T12:51:50.428Z,101960.84
2023-05-25T12:54:18.049Z,101967.44
2023-05-25T12:56:57.155Z,101964.03
2023-05-25T13:01:50.689Z,101962.88
2023-05-25T13:04:17.191Z,101967.00
2023-05-25T13:06:43.659Z,101969.50
2023-05-25T13:09:10.225Z,101960.97
2023-05-25T13:11:36.753Z,101969.22
2023-05-25T13:14:04.331Z,101948.69
2023-05-25T13:16:32.880Z,101938.66
2023-05-25T13:18:59.969Z,101929.97
2023-05-25T13:21:26.504Z,101924.53
2023-05-25T13:23:52.969Z,101939.53
2023-05-25T13:26:20.555Z,101941.22
2023-05-25T13:28:48.385Z,101939.84
2023-05-25T13:31:14.883Z,101937.63
2023-05-25T13:33:41.430Z,101940.03
2023-05-25T13:36:08.298Z,101933.84
2023-05-25T13:38:35.466Z,101933.81
2023-05-25T13:41:02.310Z,101936.19
2023-05-25T13:43:29.441Z,101929.81
2023-05-25T13:45:56.095Z,101933.53
2023-05-25T13:48:22.693Z,101929.59
2023-05-25T13:50:49.390Z,101932.41
2023-05-25T13:53:16.226Z,101928.13
2023-05-25T13:55:43.232Z,101923.03
2023-05-25T13:58:09.977Z,101916.59
2023-05-25T14:00:36.746Z,101920.56
2023-05-25T14:03:03.424Z,101921.06
2023-05-25T14:05:30.381Z,101922.66
2023-05-25T14:07:57.038Z,101923.88
2023-05-25T14:10:23.488Z,101920.44
2023-05-25T14:12:49.953Z,101914.56
2023-05-25T14:15:16.402Z,101913.00
2023-05-25T14:17:42.921Z,101908.88
2023-05-25T14:20:09.779Z,101899.72
2023-05-25T14:22:36.309Z,101905.13
2023-05-25T14:25:02.816Z,101886.84
2023-05-25T14:27:29.960Z,101891.81
2023-05-25T14:29:56.410Z,101896.91
2023-05-25T14:32:22.868Z,101902.63
2023-05-25T14:34:49.322Z,101895.50
2023-05-25T14:37:15.858Z,101898.16
2023-05-25T14:39:42.328Z,101886.81
2023-05-25T14:42:08.776Z,101883.19
2023-05-25T14:44:35.408Z,101883.50
2023-05-25T14:47:02.042Z,101888.81
2023-05-25T14:49:28.574Z,101887.22
2023-05-25T14:51:55.046Z,101889.06
2023-05-25T14:54:21.511Z,101897.19
2023-05-25T14:56:48.091Z,101889.81
2023-05-25T14:59:14.558Z,101891.84
2023-05-25T15:01:41.127Z,101894.06
2023-05-25T15:04:08.687Z,101887.19
2023-05-25T15:06:36.778Z,101886.97
2023-05-25T15:09:03.333Z,101881.56
2023-05-25T15:11:29.785Z,101885.38
2023-05-25T15:13:57.856Z,101882.13
2023-05-25T15:16:24.548Z,101878.13
2023-05-25T15:18:51.716Z,101875.13
2023-05-25T15:21:18.180Z,101871.69
2023-05-25T15:23:44.959Z,101872.59
2023-05-25T15:26:11.701Z,101874.44
2023-05-25T15:28:38.193Z,101872.72
2023-05-25T15:31:04.804Z,101867.91
2023-05-25T15:33:47.124Z,101872.19
2023-05-25T15:36:17.941Z,101874.44
2023-05-25T15:38:45.687Z,101874.06
2023-05-25T15:41:15.080Z,101876.00
2023-05-25T15:43:41.839Z,101873.81
2023-05-25T15:46:08.390Z,101871.25
2023-05-25T15:48:34.848Z,101868.31
2023-05-25T15:51:01.313Z,101860.44
2023-05-25T15:53:27.767Z,101853.06
2023-05-25T15:55:54.220Z,101855.34
2023-05-25T15:58:20.675Z,101854.00
2023-05-25T16:00:47.208Z,101849.69
2023-05-25T16:03:13.643Z,101845.13
2023-05-25T16:05:40.110Z,101843.75
2023-05-25T16:08:06.554Z,101832.75
2023-05-25T16:10:33.038Z,101837.78
2023-05-25T16:12:59.475Z,101839.44
2023-05-25T16:15:26.265Z,101848.88
2023-05-25T16:17:52.738Z,101847.78
2023-05-25T16:20:19.281Z,101855.81
2023-05-25T16:22:45.968Z,101850.16
2023-05-25T16:25:12.444Z,101851.69
2023-05-25T16:27:38.917Z,101849.94
2023-05-25T16:30:06.388Z,101844.53
2023-05-25T16:32:32.978Z,101849.94
2023-05-25T16:34:59.609Z,101839.78
2023-05-25T16:37:26.114Z,101841.69
2023-05-25T16:39:52.592Z,101834.69
2023-05-25T16:42:19.412Z,101839.25
2023-05-25T16:44:45.901Z,101849.25
2023-05-25T16:47:12.353Z,101847.81
2023-05-25T16:49:38.792Z,101848.56
2023-05-25T16:52:05.586Z,101850.41
2023-05-25T16:54:32.034Z,101847.00
2023-05-25T16:56:58.534Z,101847.38
2023-05-25T16:59:24.993Z,101848.28
2023-05-25T17:01:51.911Z,101854.25
2023-05-25T17:04:18.462Z,101853.50
2023-05-25T17:06:44.910Z,101847.75
2023-05-25T17:09:11.936Z,101844.16
2023-05-25T17:11:38.497Z,101851.13
2023-05-25T17:14:05.070Z,101844.75
2023-05-25T17:16:31.683Z,101841.41
2023-05-25T17:18:58.164Z,101834.72
2023-05-25T17:21:24.623Z,101838.78
2023-05-25T17:23:51.056Z,101835.16
2023-05-25T17:26:17.513Z,101840.78
2023-05-25T17:28:44.155Z,101845.81
2023-05-25T17:31:10.755Z,101843.81
2023-05-25T17:33:38.763Z,101839.50
2023-05-25T17:36:05.786Z,101840.81
2023-05-25T17:38:34.318Z,101834.81
2023-05-25T17:41:00.850Z,101839.09
2023-05-25T17:43:27.429Z,101844.94
2023-05-25T17:45:54.035Z,101829.47
2023-05-25T17:48:20.537Z,101833.69
2023-05-25T17:50:47.114Z,101840.59
2023-05-25T17:53:13.571Z,101841.25
2023-05-25T17:55:40.156Z,101841.59
2023-05-25T17:58:06.621Z,101838.72
2023-05-25T18:00:33.220Z,101837.91
2023-05-25T18:02:59.750Z,101835.88
2023-05-25T18:05:26.256Z,101845.78
2023-05-25T18:07:52.706Z,101840.03
2023-05-25T18:10:19.160Z,101848.34
2023-05-25T18:12:49.081Z,101840.41
2023-05-25T18:15:15.559Z,101841.19
2023-05-25T18:17:42.127Z,101844.84
2023-05-25T18:20:09.370Z,101843.88
2023-05-25T18:22:36.393Z,101845.81
2023-05-25T18:25:03.624Z,101845.34
2023-05-25T18:27:30.097Z,101852.34
2023-05-25T18:29:56.564Z,101860.28
2023-05-25T18:32:23.057Z,101858.38
2023-05-25T18:34:49.652Z,101854.53
2023-05-25T18:37:16.163Z,101857.16
2023-05-25T18:39:42.705Z,101856.97
2023-05-25T18:42:09.183Z,101851.94
2023-05-25T18:44:36.493Z,101848.69
2023-05-25T18:47:02.971Z,101847.88
2023-05-25T18:49:34.451Z,101853.38
2023-05-25T18:52:01.509Z,101844.34
2023-05-25T18:54:28.163Z,101854.44
2023-05-25T18:56:54.612Z,101851.56
2023-05-25T18:59:21.061Z,101857.63
2023-05-25T19:01:47.535Z,101853.78
2023-05-25T19:04:14.097Z,101859.59
2023-05-25T19:06:40.754Z,101861.38
2023-05-25T19:09:07.264Z,101860.53
2023-05-25T19:11:33.831Z,101865.31
2023-05-25T19:14:00.322Z,101860.97
2023-05-25T19:16:26.826Z,101857.34
2023-05-25T19:18:53.335Z,101863.50
2023-05-25T19:21:19.768Z,101858.88
2023-05-25T19:23:46.312Z,101863.28
2023-05-25T19:26:12.830Z,101864.53
2023-05-25T19:28:39.391Z,101869.50
2023-05-25T19:31:05.831Z,101880.81
2023-05-25T19:33:32.284Z,101879.81
2023-05-25T19:35:58.792Z,101875.19
2023-05-25T19:38:28.784Z,101886.56
2023-05-25T19:41:00.963Z,101882.06
2023-05-25T19:43:27.470Z,101885.00
2023-05-25T19:45:53.979Z,101885.31
2023-05-25T19:48:20.640Z,101886.81
2023-05-25T19:50:47.113Z,101892.47
2023-05-25T19:53:13.617Z,101896.78
2023-05-25T19:55:40.183Z,101896.88
2023-05-25T19:58:06.863Z,101896.88
2023-05-25T20:00:33.355Z,101898.47
2023-05-25T20:02:59.913Z,101893.84
2023-05-25T20:05:26.498Z,101900.28
2023-05-25T20:07:53.025Z,101895.63
2023-05-25T20:10:19.794Z,101907.19
2023-05-25T20:12:46.324Z,101905.16
2023-05-25T20:15:12.840Z,101907.00
2023-05-25T20:17:39.337Z,101907.78
2023-05-25T20:20:06.664Z,101902.06
2023-05-25T20:22:33.226Z,101915.66
2023-05-25T20:25:00.834Z,101905.44
2023-05-25T20:27:27.980Z,101916.94
2023-05-25T20:29:54.834Z,101911.16
2023-05-25T20:32:21.470Z,101911.66
2023-05-25T20:34:48.051Z,101913.09
2023-05-25T20:37:14.554Z,101903.53
2023-05-25T20:39:41.109Z,101908.53
2023-05-25T20:42:07.692Z,101911.13
2023-05-25T20:44:34.245Z,101922.66
2023-05-25T20:47:00.890Z,101915.41
2023-05-25T20:49:27.480Z,101919.16
2023-05-25T20:51:53.956Z,101914.19
2023-05-25T20:54:20.408Z,101922.66
2023-05-25T20:56:48.028Z,101928.00
2023-05-25T20:59:14.609Z,101930.59
2023-05-25T21:01:41.136Z,101930.34
2023-05-25T21:04:07.849Z,101941.94
2023-05-25T21:06:34.423Z,101939.03
2023-05-25T21:09:01.546Z,101940.75
2023-05-25T21:11:28.606Z,101948.06
2023-05-25T21:13:55.567Z,101946.53
2023-05-25T21:16:22.095Z,101954.88
2023-05-25T21:18:48.649Z,101951.25
2023-05-25T21:21:15.997Z,101954.63
2023-05-25T21:23:42.517Z,101960.19
2023-05-25T21:26:08.977Z,101961.84
2023-05-25T21:28:35.479Z,101960.31
2023-05-25T21:31:02.055Z,101960.31
2023-05-25T21:33:30.864Z,101957.69
2023-05-25T21:35:57.384Z,101965.78
2023-05-25T21:38:23.827Z,101965.78
2023-05-25T21:40:50.283Z,101969.16
2023-05-25T21:43:16.737Z,101973.09
2023-05-25T21:45:43.413Z,101975.44
2023-05-25T21:48:10.167Z,101977.53
2023-05-25T21:50:36.611Z,101985.84
2023-05-25T21:53:03.132Z,101983.38
2023-05-25T21:55:29.644Z,101987.13
2023-05-25T21:57:56.183Z,101991.56
2023-05-25T22:00:24.395Z,101994.16
2023-05-25T22:02:51.461Z,102001.97
2023-05-25T22:05:18.085Z,101994.53
2023-05-25T22:07:44.547Z,102001.94
2023-05-25T22:10:11.132Z,102008.13
2023-05-25T22:12:37.599Z,102002.41
2023-05-25T22:15:05.639Z,101996.41
2023-05-25T22:17:32.208Z,101997.19
2023-05-25T22:20:07.586Z,101998.19
2023-05-25T22:22:34.658Z,101999.59
2023-05-25T22:25:01.122Z,102006.94
2023-05-25T22:27:27.568Z,102005.78
2023-05-25T22:29:54.074Z,102012.56
2023-05-25T22:32:20.611Z,102016.94
2023-05-25T22:34:47.270Z,102015.09
2023-05-25T22:37:14.000Z,102011.03
2023-05-25T22:39:40.555Z,102009.25
2023-05-25T22:42:07.185Z,102001.69
2023-05-25T22:44:35.491Z,102002.28
2023-05-25T22:47:02.363Z,102015.69
2023-05-25T22:49:28.871Z,102017.03
2023-05-25T22:51:55.648Z,102015.75
2023-05-25T22:54:22.110Z,102029.13
2023-05-25T22:56:48.544Z,102021.69
2023-05-25T22:59:14.991Z,102023.09
2023-05-25T23:01:41.469Z,102031.97
2023-05-25T23:04:08.862Z,102035.28
2023-05-25T23:06:36.503Z,102032.72
2023-05-25T23:09:03.050Z,102034.28
2023-05-25T23:11:29.524Z,102034.03
2023-05-25T23:13:56.028Z,102039.28
2023-05-25T23:16:22.720Z,102037.25
2023-05-25T23:18:51.280Z,102044.19
2023-05-25T23:21:17.814Z,102043.91
2023-05-25T23:23:44.272Z,102035.19
2023-05-25T23:26:10.730Z,102043.81
2023-05-25T23:28:37.282Z,102041.13
2023-05-25T23:31:03.873Z,102044.16
2023-05-25T23:33:30.393Z,102042.56
2023-05-25T23:35:57.184Z,102044.34
2023-05-25T23:38:23.685Z,102041.75
2023-05-25T23:40:50.131Z,102046.97
2023-05-25T23:43:16.996Z,102054.19
2023-05-25T23:45:43.734Z,102045.34
2023-05-25T23:48:10.442Z,102051.53
2023-05-25T23:50:36.972Z,102046.19
2023-05-25T23:53:03.403Z,102060.75
2023-05-25T23:55:30.567Z,102051.88
2023-05-25T23:57:57.036Z,102060.47
